Time,TemperatureF,DewpointF,PressureIn,WindDirection,WindDirectionDegrees,WindSpeedMPH,WindSpeedGustMPH,Humidity,HourlyPrecipIn,Conditions,Clouds,dailyrainin,SolarRadiationWatts/m^2,SoftwareType,DateUTC
2013-04-24 00:01:00,47.6,44.5,29.82,WNW,302,0.0,1.0,89,0.00,,,0.00,0,WeatherCatV1.12B45,2013-04-24 07:01:00,
2013-04-24 00:06:00,47.4,44.3,29.82,NW,308,0.0,1.0,89,0.00,,,0.00,0,WeatherCatV1.12B45,2013-04-24 07:06:00,
2013-04-24 00:11:00,47.4,44.3,29.82,NNW,332,1.0,1.0,89,0.00,,,0.00,0,WeatherCatV1.12B45,2013-04-24 07:11:00,
2013-04-24 00:16:00,47.4,44.6,29.82,NNW,330,0.0,0.0,90,0.00,,,0.00,0,WeatherCatV1.12B45,2013-04-24 07:16:00,
2013-04-24 00:21:00,47.3,44.5,29.82,NW,326,0.0,0.0,90,0.00,,,0.00,0,WeatherCatV1.12B45,2013-04-24 07:21:00,
2013-04-24 00:26:00,47.3,44.5,29.82,West,281,0.0,2.0,90,0.00,,,0.00,0,WeatherCatV1.12B45,2013-04-24 07:26:00,
2013-04-24 00:31:00,47.3,44.5,29.82,West,278,0.0,0.0,90,0.00,,,0.00,0,WeatherCatV1.12B45,2013-04-24 07:31:00,
2013-04-24 00:36:00,47.3,44.5,29.82,NNW,329,0.0,0.0,90,0.00,,,0.00,0,WeatherCatV1.12B45,2013-04-24 07:36:00,
2013-04-24 00:41:00,47.3,44.5,29.82,NW,325,0.0,1.0,90,0.00,,,0.00,0,WeatherCatV1.12B45,2013-04-24 07:41:00,
2013-04-24 00:46:00,47.3,44.5,29.83,NW,322,2.0,5.0,90,0.00,,,0.00,0,WeatherCatV1.12B45,2013-04-24 07:46:00,
2013-04-24 00:51:00,47.4,44.6,29.83,NW,322,0.0,0.0,90,0.00,,,0.00,0,WeatherCatV1.12B45,2013-04-24 07:51:00,
2013-04-24 00:56:00,47.4,44.6,29.83,NW,322,0.0,0.0,90,0.00,,,0.00,0,WeatherCatV1.12B45,2013-04-24 07:56:00,
2013-04-24 01:01:00,47.4,44.6,29.82,NW,322,0.0,0.0,90,0.00,,,0.00,0,WeatherCatV1.12B45,2013-04-24 08:01:00,
2013-04-24 01:06:00,47.3,44.5,29.82,NW,320,0.0,0.0,90,0.00,,,0.00,0,WeatherCatV1.12B45,2013-04-24 08:06:00,
2013-04-24 01:11:00,47.1,44.3,29.82,NW,316,0.0,0.0,90,0.00,,,0.00,0,WeatherCatV1.12B45,2013-04-24 08:11:00,
2013-04-24 01:16:00,47.0,44.2,29.82,NW,316,0.0,0.0,90,0.00,,,0.00,0,WeatherCatV1.12B45,2013-04-24 08:16:00,
2013-04-24 01:21:00,46.8,44.0,29.82,NW,309,0.0,0.0,90,0.00,,,0.00,0,WeatherCatV1.12B45,2013-04-24 08:21:00,
2013-04-24 01:26:00,46.7,43.9,29.82,NW,311,0.0,0.0,90,0.00,,,0.00,0,WeatherCatV1.12B45,2013-04-24 08:26:00,
2013-04-24 01:31:00,46.7,43.9,29.82,NW,311,0.0,0.0,90,0.00,,,0.00,0,WeatherCatV1.12B45,2013-04-24 08:31:00,
2013-04-24 01:36:00,46.5,43.7,29.82,NW,313,0.0,0.0,90,0.00,,,0.00,0,WeatherCatV1.12B45,2013-04-24 08:36:00,
2013-04-24 01:41:00,46.2,43.4,29.82,NW,308,0.0,0.0,90,0.00,,,0.00,0,WeatherCatV1.12B45,2013-04-24 08:41:00,
2013-04-24 01:46:00,46.2,43.7,29.81,WNW,299,0.0,1.0,91,0.00,,,0.00,0,WeatherCatV1.12B45,2013-04-24 08:46:00,
2013-04-24 01:51:00,46.1,43.3,29.81,NW,306,0.0,0.0,90,0.00,,,0.00,0,WeatherCatV1.12B45,2013-04-24 08:51:00,
2013-04-24 01:56:00,46.1,43.6,29.81,NW,305,0.0,0.0,91,0.00,,,0.00,0,WeatherCatV1.12B45,2013-04-24 08:56:00,
2013-04-24 02:01:00,46.0,43.5,29.81,NW,305,0.0,0.0,91,0.00,,,0.00,0,WeatherCatV1.12B45,2013-04-24 09:01:00,
2013-04-24 02:06:00,46.0,43.5,29.81,NW,309,0.0,0.0,91,0.00,,,0.00,0,WeatherCatV1.12B45,2013-04-24 09:06:00,
2013-04-24 02:11:00,45.8,43.3,29.81,NW,306,0.0,0.0,91,0.00,,,0.00,0,WeatherCatV1.12B45,2013-04-24 09:11:00,
2013-04-24 02:16:00,45.8,43.3,29.80,NW,305,0.0,0.0,91,0.00,,,0.00,0,WeatherCatV1.12B45,2013-04-24 09:16:00,
2013-04-24 02:21:00,46.0,43.5,29.80,NW,311,0.0,1.0,91,0.00,,,0.00,0,WeatherCatV1.12B45,2013-04-24 09:21:00,
2013-04-24 02:26:00,46.1,43.6,29.80,NW,308,0.0,0.0,91,0.00,,,0.00,0,WeatherCatV1.12B45,2013-04-24 09:26:00,
2013-04-24 02:31:00,46.0,43.5,29.79,NW,305,0.0,0.0,91,0.00,,,0.00,0,WeatherCatV1.12B45,2013-04-24 09:31:00,
2013-04-24 02:36:00,46.0,43.5,29.79,NW,308,0.0,0.0,91,0.00,,,0.00,0,WeatherCatV1.12B45,2013-04-24 09:36:00,
2013-04-24 02:41:00,45.8,43.3,29.79,NW,309,0.0,0.0,91,0.00,,,0.00,0,WeatherCatV1.12B45,2013-04-24 09:41:00,
2013-04-24 02:46:00,45.7,43.2,29.79,NW,309,0.0,0.0,91,0.00,,,0.00,0,WeatherCatV1.12B45,2013-04-24 09:46:00,
2013-04-24 02:51:00,45.7,43.2,29.79,NW,308,0.0,0.0,91,0.00,,,0.00,0,WeatherCatV1.12B45,2013-04-24 09:51:00,
2013-04-24 02:56:00,45.7,43.2,29.79,NW,304,0.0,0.0,91,0.00,,,0.00,0,WeatherCatV1.12B45,2013-04-24 09:56:00,
2013-04-24 03:01:00,45.7,43.5,29.78,NW,311,0.0,0.0,92,0.00,,,0.00,0,WeatherCatV1.12B45,2013-04-24 10:01:00,
2013-04-24 03:06:00,45.7,43.5,29.78,NW,305,0.0,0.0,92,0.00,,,0.00,0,WeatherCatV1.12B45,2013-04-24 10:06:00,
2013-04-24 03:11:00,45.7,43.5,29.78,NW,305,0.0,0.0,92,0.00,,,0.00,0,WeatherCatV1.12B45,2013-04-24 10:11:00,
2013-04-24 03:16:00,45.7,43.5,29.78,NW,304,0.0,0.0,92,0.00,,,0.00,0,WeatherCatV1.12B45,2013-04-24 10:16:00,
2013-04-24 03:21:00,45.7,43.5,29.78,WNW,302,0.0,0.0,92,0.00,,,0.00,0,WeatherCatV1.12B45,2013-04-24 10:21:00,
2013-04-24 03:26:00,45.7,43.5,29.78,WNW,302,0.0,0.0,92,0.00,,,0.00,0,WeatherCatV1.12B45,2013-04-24 10:26:00,
2013-04-24 03:31:00,45.5,43.3,29.78,WNW,301,0.0,0.0,92,0.00,,,0.00,0,WeatherCatV1.12B45,2013-04-24 10:31:00,
2013-04-24 03:36:00,45.4,43.2,29.78,NW,305,0.0,0.0,92,0.00,,,0.00,0,WeatherCatV1.12B45,2013-04-24 10:36:00,
2013-04-24 03:41:00,45.4,43.2,29.78,WNW,301,0.0,0.0,92,0.00,,,0.00,0,WeatherCatV1.12B45,2013-04-24 10:41:00,
2013-04-24 03:46:00,45.4,43.2,29.77,WNW,302,0.0,0.0,92,0.00,,,0.00,0,WeatherCatV1.12B45,2013-04-24 10:46:00,
2013-04-24 03:51:00,45.4,43.2,29.77,NW,304,0.0,0.0,92,0.00,,,0.00,0,WeatherCatV1.12B45,2013-04-24 10:51:00,
2013-04-24 03:56:00,45.2,43.0,29.77,NW,305,0.0,0.0,92,0.00,,,0.00,0,WeatherCatV1.12B45,2013-04-24 10:56:00,
2013-04-24 04:01:00,45.1,42.9,29.77,NW,308,0.0,0.0,92,0.00,,,0.00,0,WeatherCatV1.12B45,2013-04-24 11:01:00,
2013-04-24 04:06:00,45.1,42.9,29.77,NW,313,0.0,0.0,92,0.00,,,0.00,0,WeatherCatV1.12B45,2013-04-24 11:06:00,
2013-04-24 04:11:00,44.9,42.7,29.77,NW,305,0.0,0.0,92,0.00,,,0.00,0,WeatherCatV1.12B45,2013-04-24 11:11:00,
2013-04-24 04:16:00,44.6,42.4,29.77,NW,311,0.0,0.0,92,0.00,,,0.00,0,WeatherCatV1.12B45,2013-04-24 11:16:00,
2013-04-24 04:21:00,44.5,42.3,29.77,NW,311,0.0,0.0,92,0.00,,,0.00,0,WeatherCatV1.12B45,2013-04-24 11:21:00,
2013-04-24 04:26:00,44.3,42.1,29.77,NW,309,0.0,0.0,92,0.00,,,0.00,0,WeatherCatV1.12B45,2013-04-24 11:26:00,
2013-04-24 04:31:00,44.2,42.0,29.77,NW,311,0.0,0.0,92,0.00,,,0.00,0,WeatherCatV1.12B45,2013-04-24 11:31:00,
2013-04-24 04:36:00,44.1,41.9,29.77,NW,313,0.0,0.0,92,0.00,,,0.00,0,WeatherCatV1.12B45,2013-04-24 11:36:00,
2013-04-24 04:41:00,44.1,41.9,29.77,WNW,298,0.0,0.0,92,0.00,,,0.00,0,WeatherCatV1.12B45,2013-04-24 11:41:00,
2013-04-24 04:46:00,43.9,41.7,29.77,WNW,289,0.0,0.0,92,0.00,,,0.00,0,WeatherCatV1.12B45,2013-04-24 11:46:00,
2013-04-24 04:51:00,43.8,41.6,29.77,WNW,298,0.0,0.0,92,0.00,,,0.00,0,WeatherCatV1.12B45,2013-04-24 11:51:00,
2013-04-24 04:56:00,43.6,41.4,29.77,WNW,295,0.0,0.0,92,0.00,,,0.00,0,WeatherCatV1.12B45,2013-04-24 11:56:00,
2013-04-24 05:01:00,43.5,41.3,29.77,WNW,289,0.0,0.0,92,0.00,,,0.00,0,WeatherCatV1.12B45,2013-04-24 12:01:00,
2013-04-24 05:06:00,43.3,41.1,29.77,WNW,301,0.0,0.0,92,0.00,,,0.00,0,WeatherCatV1.12B45,2013-04-24 12:06:00,
2013-04-24 05:11:00,43.2,41.0,29.77,WNW,292,0.0,0.0,92,0.00,,,0.00,0,WeatherCatV1.12B45,2013-04-24 12:11:00,
2013-04-24 05:16:00,43.1,40.9,29.77,WNW,295,0.0,0.0,92,0.00,,,0.00,0,WeatherCatV1.12B45,2013-04-24 12:16:00,
2013-04-24 05:21:00,42.9,40.7,29.77,WNW,298,0.0,0.0,92,0.00,,,0.00,0,WeatherCatV1.12B45,2013-04-24 12:21:00,
2013-04-24 05:26:00,42.9,40.7,29.77,WNW,298,0.0,0.0,92,0.00,,,0.00,0,WeatherCatV1.12B45,2013-04-24 12:26:00,
2013-04-24 05:31:00,42.9,40.7,29.77,WNW,292,0.0,0.0,92,0.00,,,0.00,0,WeatherCatV1.12B45,2013-04-24 12:31:00,
2013-04-24 05:36:00,42.9,40.7,29.77,WNW,294,0.0,0.0,92,0.00,,,0.00,0,WeatherCatV1.12B45,2013-04-24 12:36:00,
2013-04-24 05:41:00,42.9,40.7,29.77,WNW,294,0.0,0.0,92,0.00,,,0.00,0,WeatherCatV1.12B45,2013-04-24 12:41:00,
2013-04-24 05:46:00,42.9,40.7,29.77,WNW,294,0.0,0.0,92,0.00,,,0.00,0,WeatherCatV1.12B45,2013-04-24 12:46:00,
2013-04-24 05:51:00,42.9,40.7,29.77,WNW,292,0.0,0.0,92,0.00,,,0.00,0,WeatherCatV1.12B45,2013-04-24 12:51:00,
2013-04-24 05:56:00,42.9,40.7,29.77,NW,311,0.0,0.0,92,0.00,,,0.00,0,WeatherCatV1.12B45,2013-04-24 12:56:00,
2013-04-24 06:01:00,43.1,40.9,29.77,NW,308,0.0,0.0,92,0.00,,,0.00,0,WeatherCatV1.12B45,2013-04-24 13:01:00,
2013-04-24 06:06:00,43.1,40.9,29.77,WNW,302,0.0,0.0,92,0.00,,,0.00,0,WeatherCatV1.12B45,2013-04-24 13:06:00,
2013-04-24 06:11:00,42.9,40.7,29.77,NW,304,0.0,0.0,92,0.00,,,0.00,0,WeatherCatV1.12B45,2013-04-24 13:11:00,
2013-04-24 06:16:00,42.9,40.7,29.77,WNW,298,0.0,0.0,92,0.00,,,0.00,0,WeatherCatV1.12B45,2013-04-24 13:16:00,
2013-04-24 06:21:00,42.8,40.6,29.77,WNW,296,0.0,0.0,92,0.00,,,0.00,0,WeatherCatV1.12B45,2013-04-24 13:21:00,
2013-04-24 06:26:00,42.8,40.6,29.77,WNW,299,0.0,0.0,92,0.00,,,0.00,0,WeatherCatV1.12B45,2013-04-24 13:26:00,
2013-04-24 06:31:00,42.5,40.3,29.77,WNW,302,0.0,0.0,92,0.00,,,0.00,0,WeatherCatV1.12B45,2013-04-24 13:31:00,
2013-04-24 06:36:00,42.3,40.1,29.77,WNW,299,0.0,0.0,92,0.00,,,0.00,5,WeatherCatV1.12B45,2013-04-24 13:36:00,
2013-04-24 06:41:00,42.3,40.1,29.77,NW,305,0.0,0.0,92,0.00,,,0.00,9,WeatherCatV1.12B45,2013-04-24 13:41:00,
2013-04-24 06:46:00,42.3,40.1,29.78,WNW,302,0.0,0.0,92,0.00,,,0.00,12,WeatherCatV1.12B45,2013-04-24 13:46:00,
2013-04-24 06:51:00,42.3,40.1,29.78,WNW,296,0.0,0.0,92,0.00,,,0.00,16,WeatherCatV1.12B45,2013-04-24 13:51:00,
2013-04-24 06:56:00,42.5,40.3,29.78,NW,312,0.0,0.0,92,0.00,,,0.00,23,WeatherCatV1.12B45,2013-04-24 13:56:00,
2013-04-24 07:01:00,42.6,40.7,29.78,NW,308,0.0,0.0,93,0.00,,,0.00,33,WeatherCatV1.12B45,2013-04-24 14:01:00,
2013-04-24 07:06:00,42.9,41.0,29.78,NW,309,0.0,0.0,93,0.00,,,0.00,33,WeatherCatV1.12B45,2013-04-24 14:06:00,
2013-04-24 07:11:00,43.1,41.2,29.78,WNW,301,0.0,0.0,93,0.00,,,0.00,63,WeatherCatV1.12B45,2013-04-24 14:11:00,
2013-04-24 07:16:00,43.3,41.4,29.78,NW,311,0.0,0.0,93,0.00,,,0.00,51,WeatherCatV1.12B45,2013-04-24 14:16:00,
2013-04-24 07:21:00,43.8,41.9,29.78,NNW,329,0.0,0.0,93,0.00,,,0.00,74,WeatherCatV1.12B45,2013-04-24 14:21:00,
2013-04-24 07:26:00,44.2,42.3,29.78,NNW,340,0.0,0.0,93,0.00,,,0.00,65,WeatherCatV1.12B45,2013-04-24 14:26:00,
2013-04-24 07:32:00,44.8,42.9,29.79,NNW,346,0.0,1.0,93,0.00,,,0.00,65,WeatherCatV1.12B45,2013-04-24 14:32:00,
2013-04-24 07:36:00,45.1,43.2,29.79,NW,309,0.0,0.0,93,0.00,,,0.00,157,WeatherCatV1.12B45,2013-04-24 14:36:00,
2013-04-24 07:41:00,46.4,44.5,29.79,NW,306,0.0,0.0,93,0.00,,,0.00,157,WeatherCatV1.12B45,2013-04-24 14:41:00,
2013-04-24 07:46:00,47.0,45.1,29.79,North,354,2.0,2.0,93,0.00,,,0.00,194,WeatherCatV1.12B45,2013-04-24 14:46:00,
2013-04-24 07:51:00,47.6,45.7,29.79,North,350,0.0,0.0,93,0.00,,,0.00,199,WeatherCatV1.12B45,2013-04-24 14:51:00,
2013-04-24 07:56:00,48.2,46.0,29.79,North,354,0.0,1.0,92,0.00,,,0.00,187,WeatherCatV1.12B45,2013-04-24 14:56:00,
2013-04-24 08:01:00,48.6,46.4,29.79,NNW,347,0.0,1.0,92,0.00,,,0.00,204,WeatherCatV1.12B45,2013-04-24 15:01:00,
2013-04-24 08:11:00,49.4,46.9,29.79,NNW,346,0.0,3.0,91,0.00,,,0.00,274,WeatherCatV1.12B45,2013-04-24 15:11:00,
2013-04-24 08:16:00,49.8,47.0,29.79,NNW,337,1.0,3.0,90,0.00,,,0.00,289,WeatherCatV1.12B45,2013-04-24 15:16:00,
2013-04-24 08:21:00,49.9,47.1,29.79,NNW,337,1.0,6.0,90,0.00,,,0.00,317,WeatherCatV1.12B45,2013-04-24 15:21:00,
2013-04-24 08:26:00,50.4,47.0,29.79,NNW,335,3.0,6.0,88,0.00,,,0.00,336,WeatherCatV1.12B45,2013-04-24 15:26:00,
2013-04-24 08:31:00,50.8,47.1,29.80,NNW,330,1.0,7.0,87,0.00,,,0.00,345,WeatherCatV1.12B45,2013-04-24 15:31:00,
2013-04-24 08:36:00,51.1,47.1,29.80,NNW,343,0.0,5.0,86,0.00,,,0.00,384,WeatherCatV1.12B45,2013-04-24 15:36:00,
2013-04-24 08:41:00,51.6,46.9,29.80,NNW,335,0.0,3.0,84,0.00,,,0.00,408,WeatherCatV1.12B45,2013-04-24 15:41:00,
2013-04-24 08:46:00,51.7,46.7,29.80,NNW,329,5.0,5.0,83,0.00,,,0.00,417,WeatherCatV1.12B45,2013-04-24 15:46:00,
2013-04-24 08:51:00,52.0,47.0,29.80,NW,326,5.0,7.0,83,0.00,,,0.00,417,WeatherCatV1.12B45,2013-04-24 15:51:00,
2013-04-24 08:56:00,52.2,46.9,29.80,NW,325,1.0,5.0,82,0.00,,,0.00,449,WeatherCatV1.12B45,2013-04-24 15:56:00,
2013-04-24 09:01:00,52.2,46.5,29.80,NW,323,7.0,7.0,81,0.00,,,0.00,449,WeatherCatV1.12B45,2013-04-24 16:01:00,
2013-04-24 09:06:00,52.2,46.2,29.80,NW,326,6.0,7.0,80,0.00,,,0.00,503,WeatherCatV1.12B45,2013-04-24 16:06:00,
2013-04-24 09:11:00,52.2,46.2,29.80,NNW,333,0.0,5.0,80,0.00,,,0.00,505,WeatherCatV1.12B45,2013-04-24 16:11:00,
2013-04-24 09:16:00,52.5,46.5,29.81,WNW,292,4.0,5.0,80,0.00,,,0.00,524,WeatherCatV1.12B45,2013-04-24 16:16:00,
2013-04-24 09:21:00,52.6,46.3,29.81,NW,326,0.0,3.0,79,0.00,,,0.00,547,WeatherCatV1.12B45,2013-04-24 16:21:00,
2013-04-24 09:26:00,52.8,46.5,29.81,NNW,329,6.0,9.0,79,0.00,,,0.00,565,WeatherCatV1.12B45,2013-04-24 16:26:00,
2013-04-24 09:31:00,52.9,46.2,29.81,NW,323,3.0,6.0,78,0.00,,,0.00,577,WeatherCatV1.12B45,2013-04-24 16:31:00,
2013-04-24 09:36:00,53.3,46.6,29.81,NW,309,5.0,7.0,78,0.00,,,0.00,593,WeatherCatV1.12B45,2013-04-24 16:36:00,
2013-04-24 09:41:00,53.3,45.9,29.81,NNW,330,1.0,2.0,76,0.00,,,0.00,616,WeatherCatV1.12B45,2013-04-24 16:41:00,
2013-04-24 09:46:00,53.5,46.1,29.81,NW,325,7.0,7.0,76,0.00,,,0.00,616,WeatherCatV1.12B45,2013-04-24 16:46:00,
2013-04-24 09:51:00,53.8,46.4,29.81,NW,315,4.0,5.0,76,0.00,,,0.00,639,WeatherCatV1.12B45,2013-04-24 16:51:00,
2013-04-24 09:56:00,53.6,46.2,29.81,NW,325,1.0,5.0,76,0.00,,,0.00,656,WeatherCatV1.12B45,2013-04-24 16:56:00,
2013-04-24 10:01:00,53.8,46.4,29.81,WNW,289,2.0,2.0,76,0.00,,,0.00,663,WeatherCatV1.12B45,2013-04-24 17:01:00,
2013-04-24 10:06:00,54.4,47.0,29.81,NW,322,4.0,7.0,76,0.00,,,0.00,663,WeatherCatV1.12B45,2013-04-24 17:06:00,
2013-04-24 10:11:00,54.4,47.0,29.81,NNW,343,7.0,7.0,76,0.00,,,0.00,686,WeatherCatV1.12B45,2013-04-24 17:11:00,
2013-04-24 10:16:00,54.1,46.7,29.82,NNW,333,2.0,7.0,76,0.00,,,0.00,709,WeatherCatV1.12B45,2013-04-24 17:16:00,
2013-04-24 10:21:00,54.2,46.4,29.82,NW,304,3.0,11.0,75,0.00,,,0.00,728,WeatherCatV1.12B45,2013-04-24 17:21:00,
2013-04-24 10:26:00,54.2,46.1,29.82,NNW,329,2.0,8.0,74,0.00,,,0.00,728,WeatherCatV1.12B45,2013-04-24 17:26:00,
2013-04-24 10:31:00,54.5,46.7,29.82,NW,325,5.0,7.0,75,0.00,,,0.00,746,WeatherCatV1.12B45,2013-04-24 17:31:00,
2013-04-24 10:36:00,54.5,46.7,29.82,NW,319,2.0,6.0,75,0.00,,,0.00,762,WeatherCatV1.12B45,2013-04-24 17:36:00,
2013-04-24 10:41:00,54.5,46.7,29.82,WNW,288,5.0,7.0,75,0.00,,,0.00,774,WeatherCatV1.12B45,2013-04-24 17:41:00,
2013-04-24 10:46:00,54.8,47.0,29.82,NW,318,2.0,6.0,75,0.00,,,0.00,774,WeatherCatV1.12B45,2013-04-24 17:46:00,
2013-04-24 10:51:00,54.8,46.3,29.82,NW,313,3.0,6.0,73,0.00,,,0.00,797,WeatherCatV1.12B45,2013-04-24 17:51:00,
2013-04-24 10:56:00,54.7,46.2,29.82,NW,312,2.0,3.0,73,0.00,,,0.00,797,WeatherCatV1.12B45,2013-04-24 17:56:00,
2013-04-24 11:01:00,54.8,45.9,29.83,WNW,301,4.0,7.0,72,0.00,,,0.00,815,WeatherCatV1.12B45,2013-04-24 18:01:00,
2013-04-24 11:06:00,54.8,45.9,29.83,NW,318,2.0,7.0,72,0.00,,,0.00,836,WeatherCatV1.12B45,2013-04-24 18:06:00,
2013-04-24 11:11:00,54.8,45.9,29.83,NW,320,2.0,8.0,72,0.00,,,0.00,836,WeatherCatV1.12B45,2013-04-24 18:11:00,
2013-04-24 11:16:00,54.7,45.9,29.83,WNW,296,6.0,6.0,72,0.00,,,0.00,882,WeatherCatV1.12B45,2013-04-24 18:16:00,
2013-04-24 11:21:00,54.2,45.7,29.83,NW,322,6.0,7.0,73,0.00,,,0.00,852,WeatherCatV1.12B45,2013-04-24 18:21:00,
2013-04-24 11:26:00,54.1,46.0,29.83,NNW,337,2.0,5.0,74,0.00,,,0.00,864,WeatherCatV1.12B45,2013-04-24 18:26:00,
2013-04-24 11:31:00,54.7,46.2,29.83,NW,311,3.0,10.0,73,0.00,,,0.00,873,WeatherCatV1.12B45,2013-04-24 18:31:00,
2013-04-24 11:36:00,55.0,46.1,29.83,NW,320,2.0,11.0,72,0.00,,,0.00,878,WeatherCatV1.12B45,2013-04-24 18:36:00,
2013-04-24 11:41:00,55.3,46.1,29.83,NW,320,5.0,8.0,71,0.00,,,0.00,887,WeatherCatV1.12B45,2013-04-24 18:41:00,
2013-04-24 11:46:00,55.7,46.4,29.83,WNW,291,0.0,5.0,71,0.00,,,0.00,903,WeatherCatV1.12B45,2013-04-24 18:46:00,
2013-04-24 11:51:00,55.9,46.6,29.83,West,274,6.0,10.0,71,0.00,,,0.00,903,WeatherCatV1.12B45,2013-04-24 18:51:00,
2013-04-24 11:56:00,56.0,46.4,29.83,WNW,289,1.0,10.0,70,0.00,,,0.00,906,WeatherCatV1.12B45,2013-04-24 18:56:00,
2013-04-24 12:01:00,56.2,46.5,29.83,WNW,295,4.0,6.0,70,0.00,,,0.00,910,WeatherCatV1.12B45,2013-04-24 19:01:00,
2013-04-24 12:06:00,56.7,46.3,29.83,West,274,0.0,12.0,68,0.00,,,0.00,915,WeatherCatV1.12B45,2013-04-24 19:06:00,
2013-04-24 12:11:00,57.0,46.5,29.83,West,280,0.0,1.0,68,0.00,,,0.00,922,WeatherCatV1.12B45,2013-04-24 19:11:00,
2013-04-24 12:16:00,57.5,47.0,29.83,WSW,243,6.0,8.0,68,0.00,,,0.00,929,WeatherCatV1.12B45,2013-04-24 19:16:00,
2013-04-24 12:21:00,57.5,47.0,29.83,West,265,3.0,7.0,68,0.00,,,0.00,929,WeatherCatV1.12B45,2013-04-24 19:21:00,
2013-04-24 12:26:00,57.5,47.0,29.83,WNW,284,1.0,7.0,68,0.00,,,0.00,933,WeatherCatV1.12B45,2013-04-24 19:26:00,
2013-04-24 12:31:00,57.0,46.5,29.83,West,281,7.0,8.0,68,0.00,,,0.00,936,WeatherCatV1.12B45,2013-04-24 19:31:00,
2013-04-24 12:36:00,57.2,46.7,29.83,NW,313,6.0,10.0,68,0.00,,,0.00,936,WeatherCatV1.12B45,2013-04-24 19:36:00,
2013-04-24 12:41:00,56.9,46.4,29.83,NW,304,1.0,6.0,68,0.00,,,0.00,940,WeatherCatV1.12B45,2013-04-24 19:41:00,
2013-04-24 12:46:00,57.2,46.7,29.83,NW,308,3.0,6.0,68,0.00,,,0.00,947,WeatherCatV1.12B45,2013-04-24 19:46:00,
2013-04-24 12:51:00,57.0,46.9,29.83,WNW,288,1.0,11.0,69,0.00,,,0.00,947,WeatherCatV1.12B45,2013-04-24 19:51:00,
2013-04-24 12:56:00,57.0,46.9,29.83,NW,305,5.0,8.0,69,0.00,,,0.00,943,WeatherCatV1.12B45,2013-04-24 19:56:00,
2013-04-24 13:01:00,57.3,46.4,29.83,West,275,1.0,6.0,67,0.00,,,0.00,941,WeatherCatV1.12B45,2013-04-24 20:01:00,
2013-04-24 13:06:00,57.2,46.7,29.83,West,280,2.0,6.0,68,0.00,,,0.00,947,WeatherCatV1.12B45,2013-04-24 20:06:00,
2013-04-24 13:11:00,57.5,46.6,29.83,NW,308,1.0,2.0,67,0.00,,,0.00,941,WeatherCatV1.12B45,2013-04-24 20:11:00,
2013-04-24 13:16:00,57.6,46.7,29.83,WSW,240,0.0,6.0,67,0.00,,,0.00,945,WeatherCatV1.12B45,2013-04-24 20:16:00,
2013-04-24 13:21:00,57.8,46.9,29.83,NW,319,1.0,11.0,67,0.00,,,0.00,941,WeatherCatV1.12B45,2013-04-24 20:21:00,
2013-04-24 13:26:00,57.8,46.9,29.83,WNW,296,3.0,7.0,67,0.00,,,0.00,940,WeatherCatV1.12B45,2013-04-24 20:26:00,
2013-04-24 13:31:00,58.1,47.2,29.83,WSW,254,4.0,7.0,67,0.00,,,0.00,936,WeatherCatV1.12B45,2013-04-24 20:31:00,
2013-04-24 13:36:00,58.3,46.6,29.83,WNW,282,3.0,3.0,65,0.00,,,0.00,933,WeatherCatV1.12B45,2013-04-24 20:36:00,
2013-04-24 13:41:00,58.3,46.6,29.83,West,268,2.0,6.0,65,0.00,,,0.00,931,WeatherCatV1.12B45,2013-04-24 20:41:00,
2013-04-24 13:46:00,58.4,46.7,29.83,WSW,250,10.0,10.0,65,0.00,,,0.00,931,WeatherCatV1.12B45,2013-04-24 20:46:00,
2013-04-24 13:51:00,58.4,46.7,29.83,WSW,250,8.0,8.0,65,0.00,,,0.00,931,WeatherCatV1.12B45,2013-04-24 20:51:00,
2013-04-24 13:56:00,59.0,46.8,29.83,West,263,2.0,6.0,64,0.00,,,0.00,920,WeatherCatV1.12B45,2013-04-24 20:56:00,
2013-04-24 14:01:00,59.0,46.8,29.82,WNW,291,2.0,6.0,64,0.00,,,0.00,920,WeatherCatV1.12B45,2013-04-24 21:01:00,
2013-04-24 14:06:00,59.0,46.8,29.82,West,268,2.0,3.0,64,0.00,,,0.00,906,WeatherCatV1.12B45,2013-04-24 21:06:00,
2013-04-24 14:11:00,59.0,47.2,29.82,NW,312,3.0,3.0,65,0.00,,,0.00,901,WeatherCatV1.12B45,2013-04-24 21:11:00,
2013-04-24 14:16:00,59.3,47.1,29.82,WNW,287,3.0,7.0,64,0.00,,,0.00,892,WeatherCatV1.12B45,2013-04-24 21:16:00,
2013-04-24 14:21:00,59.2,47.0,29.82,NW,306,3.0,4.0,64,0.00,,,0.00,892,WeatherCatV1.12B45,2013-04-24 21:21:00,
2013-04-24 14:26:00,58.9,46.7,29.82,WNW,285,3.0,11.0,64,0.00,,,0.00,882,WeatherCatV1.12B45,2013-04-24 21:26:00,
2013-04-24 14:31:00,59.2,47.0,29.82,WNW,302,1.0,7.0,64,0.00,,,0.00,880,WeatherCatV1.12B45,2013-04-24 21:31:00,
2013-04-24 14:36:00,59.3,47.1,29.82,WNW,295,5.0,10.0,64,0.00,,,0.00,866,WeatherCatV1.12B45,2013-04-24 21:36:00,
2013-04-24 14:41:00,59.5,47.3,29.82,NW,311,6.0,8.0,64,0.00,,,0.00,862,WeatherCatV1.12B45,2013-04-24 21:41:00,
2013-04-24 14:46:00,59.6,47.4,29.82,NNW,335,5.0,5.0,64,0.00,,,0.00,855,WeatherCatV1.12B45,2013-04-24 21:46:00,
2013-04-24 14:51:00,60.1,47.5,29.82,NW,316,3.0,6.0,63,0.00,,,0.00,845,WeatherCatV1.12B45,2013-04-24 21:51:00,
2013-04-24 14:56:00,60.2,47.6,29.82,NNW,343,2.0,5.0,63,0.00,,,0.00,834,WeatherCatV1.12B45,2013-04-24 21:56:00,
2013-04-24 15:01:00,60.4,47.3,29.82,NNW,342,3.0,7.0,62,0.00,,,0.00,827,WeatherCatV1.12B45,2013-04-24 22:01:00,
2013-04-24 15:06:00,60.1,47.0,29.82,NNW,332,6.0,12.0,62,0.00,,,0.00,816,WeatherCatV1.12B45,2013-04-24 22:06:00,
2013-04-24 15:11:00,59.9,47.7,29.82,North,349,1.0,8.0,64,0.00,,,0.00,799,WeatherCatV1.12B45,2013-04-24 22:11:00,
2013-04-24 15:16:00,60.1,47.0,29.81,NNW,343,2.0,7.0,62,0.00,,,0.00,788,WeatherCatV1.12B45,2013-04-24 22:16:00,
2013-04-24 15:21:00,59.9,46.8,29.81,NNW,332,2.0,3.0,62,0.00,,,0.00,781,WeatherCatV1.12B45,2013-04-24 22:21:00,
2013-04-24 15:26:00,59.9,47.3,29.81,NNW,339,2.0,8.0,63,0.00,,,0.00,570,WeatherCatV1.12B45,2013-04-24 22:26:00,
2013-04-24 15:31:00,59.9,47.3,29.81,NNW,335,0.0,3.0,63,0.00,,,0.00,753,WeatherCatV1.12B45,2013-04-24 22:31:00,
2013-04-24 15:36:00,59.9,47.3,29.81,NW,318,5.0,6.0,63,0.00,,,0.00,753,WeatherCatV1.12B45,2013-04-24 22:36:00,
2013-04-24 15:41:00,59.9,47.3,29.81,NW,308,6.0,7.0,63,0.00,,,0.00,373,WeatherCatV1.12B45,2013-04-24 22:41:00,
2013-04-24 15:46:00,59.6,47.4,29.81,NNW,330,0.0,9.0,64,0.00,,,0.00,679,WeatherCatV1.12B45,2013-04-24 22:46:00,
2013-04-24 15:51:00,59.3,47.1,29.81,NW,322,3.0,7.0,64,0.00,,,0.00,679,WeatherCatV1.12B45,2013-04-24 22:51:00,
2013-04-24 15:56:00,59.2,47.0,29.81,NNW,346,8.0,10.0,64,0.00,,,0.00,679,WeatherCatV1.12B45,2013-04-24 22:56:00,
2013-04-24 16:01:00,58.9,47.2,29.81,NNW,340,3.0,3.0,65,0.00,,,0.00,162,WeatherCatV1.12B45,2013-04-24 23:01:00,
2013-04-24 16:06:00,59.0,47.2,29.81,NW,319,2.0,6.0,65,0.00,,,0.00,162,WeatherCatV1.12B45,2013-04-24 23:06:00,
2013-04-24 16:11:00,58.7,47.0,29.81,NNW,337,2.0,3.0,65,0.00,,,0.00,162,WeatherCatV1.12B45,2013-04-24 23:11:00,
2013-04-24 16:16:00,58.6,46.9,29.80,NNW,346,1.0,5.0,65,0.00,,,0.00,162,WeatherCatV1.12B45,2013-04-24 23:16:00,
2013-04-24 16:21:00,58.4,46.7,29.80,NNW,332,3.0,5.0,65,0.00,,,0.00,162,WeatherCatV1.12B45,2013-04-24 23:21:00,
2013-04-24 16:26:00,58.7,47.4,29.80,North,349,2.0,6.0,66,0.00,,,0.00,95,WeatherCatV1.12B45,2013-04-24 23:26:00,
2013-04-24 16:31:00,58.4,47.1,29.81,NW,318,5.0,7.0,66,0.00,,,0.00,76,WeatherCatV1.12B45,2013-04-24 23:31:00,
2013-04-24 16:36:00,58.1,47.2,29.81,NNW,329,5.0,5.0,67,0.00,,,0.00,83,WeatherCatV1.12B45,2013-04-24 23:36:00,
2013-04-24 16:41:00,58.0,47.1,29.81,NW,325,2.0,5.0,67,0.00,,,0.00,72,WeatherCatV1.12B45,2013-04-24 23:41:00,
2013-04-24 16:46:00,58.1,47.2,29.81,NW,316,1.0,10.0,67,0.00,,,0.00,74,WeatherCatV1.12B45,2013-04-24 23:46:00,
2013-04-24 16:51:00,57.8,47.7,29.81,NW,309,6.0,10.0,69,0.00,,,0.00,74,WeatherCatV1.12B45,2013-04-24 23:51:00,
2013-04-24 16:56:00,57.6,47.1,29.81,NNW,340,6.0,6.0,68,0.00,,,0.00,76,WeatherCatV1.12B45,2013-04-24 23:56:00,
2013-04-24 17:01:00,57.5,47.0,29.80,NNW,339,0.0,2.0,68,0.00,,,0.00,76,WeatherCatV1.12B45,2013-04-25 00:01:00,
2013-04-24 17:06:00,57.5,47.0,29.80,NNW,337,3.0,3.0,68,0.00,,,0.00,76,WeatherCatV1.12B45,2013-04-25 00:06:00,
2013-04-24 17:11:00,57.8,47.3,29.80,NNW,337,3.0,3.0,68,0.00,,,0.00,76,WeatherCatV1.12B45,2013-04-25 00:11:00,
2013-04-24 17:16:00,57.8,47.7,29.80,NW,323,6.0,10.0,69,0.00,,,0.00,95,WeatherCatV1.12B45,2013-04-25 00:16:00,
2013-04-24 17:21:00,57.6,47.5,29.80,NW,326,2.0,2.0,69,0.00,,,0.00,95,WeatherCatV1.12B45,2013-04-25 00:21:00,
2013-04-24 17:26:00,57.6,47.5,29.80,NW,315,1.0,7.0,69,0.00,,,0.00,97,WeatherCatV1.12B45,2013-04-25 00:26:00,
2013-04-24 17:31:00,57.8,47.7,29.81,NW,305,3.0,5.0,69,0.00,,,0.00,97,WeatherCatV1.12B45,2013-04-25 00:31:00,
2013-04-24 17:36:00,57.8,47.7,29.81,NW,304,6.0,6.0,69,0.00,,,0.00,104,WeatherCatV1.12B45,2013-04-25 00:36:00,
2013-04-24 17:41:00,57.6,47.5,29.81,WNW,291,2.0,8.0,69,0.00,,,0.00,116,WeatherCatV1.12B45,2013-04-25 00:41:00,
2013-04-24 17:46:00,57.6,47.5,29.81,WNW,287,0.0,7.0,69,0.00,,,0.00,107,WeatherCatV1.12B45,2013-04-25 00:46:00,
2013-04-24 17:51:00,57.5,47.4,29.81,NW,318,2.0,10.0,69,0.00,,,0.00,83,WeatherCatV1.12B45,2013-04-25 00:51:00,
2013-04-24 17:56:00,57.5,47.4,29.81,NW,304,2.0,8.0,69,0.00,,,0.00,104,WeatherCatV1.12B45,2013-04-25 00:56:00,
2013-04-24 18:01:00,57.3,47.2,29.82,NW,309,0.0,6.0,69,0.00,,,0.00,118,WeatherCatV1.12B45,2013-04-25 01:01:00,
2013-04-24 18:06:00,57.2,47.1,29.82,NW,315,3.0,6.0,69,0.00,,,0.00,118,WeatherCatV1.12B45,2013-04-25 01:06:00,
2013-04-24 18:11:00,56.6,47.3,29.82,West,264,10.0,12.0,71,0.00,,,0.00,137,WeatherCatV1.12B45,2013-04-25 01:11:00,
2013-04-24 18:16:00,56.6,47.3,29.82,WNW,294,3.0,6.0,71,0.00,,,0.00,114,WeatherCatV1.12B45,2013-04-25 01:16:00,
2013-04-24 18:21:00,56.6,47.3,29.82,NW,309,1.0,3.0,71,0.00,,,0.00,109,WeatherCatV1.12B45,2013-04-25 01:21:00,
2013-04-24 18:26:00,56.6,47.3,29.82,NW,312,2.0,6.0,71,0.00,,,0.00,107,WeatherCatV1.12B45,2013-04-25 01:26:00,
2013-04-24 18:31:00,56.3,47.4,29.83,North,349,1.0,2.0,72,0.00,,,0.00,107,WeatherCatV1.12B45,2013-04-25 01:31:00,
2013-04-24 18:36:00,56.2,47.3,29.83,North,357,2.0,6.0,72,0.00,,,0.00,83,WeatherCatV1.12B45,2013-04-25 01:36:00,
2013-04-24 18:41:00,56.0,47.5,29.83,North,357,4.0,4.0,73,0.00,,,0.00,83,WeatherCatV1.12B45,2013-04-25 01:41:00,
2013-04-24 18:46:00,55.7,47.2,29.82,NNW,342,0.0,2.0,73,0.00,,,0.00,72,WeatherCatV1.12B45,2013-04-25 01:46:00,
2013-04-24 18:51:00,55.7,47.5,29.82,North,356,1.0,3.0,74,0.00,,,0.00,60,WeatherCatV1.12B45,2013-04-25 01:51:00,
2013-04-24 18:56:00,55.6,47.4,29.82,North,353,0.0,2.0,74,0.00,,,0.00,51,WeatherCatV1.12B45,2013-04-25 01:56:00,
2013-04-24 19:01:00,55.4,47.3,29.83,North,356,0.0,2.0,74,0.00,,,0.00,40,WeatherCatV1.12B45,2013-04-25 02:01:00,
2013-04-24 19:06:00,55.4,47.6,29.83,North,353,0.0,2.0,75,0.00,,,0.00,40,WeatherCatV1.12B45,2013-04-25 02:06:00,
2013-04-24 19:11:00,55.4,47.3,29.83,North,353,0.0,0.0,74,0.00,,,0.00,33,WeatherCatV1.12B45,2013-04-25 02:11:00,
2013-04-24 19:16:00,55.4,47.6,29.83,North,357,0.0,1.0,75,0.00,,,0.00,19,WeatherCatV1.12B45,2013-04-25 02:16:00,
2013-04-24 19:21:00,55.3,47.5,29.83,North,356,4.0,5.0,75,0.00,,,0.00,16,WeatherCatV1.12B45,2013-04-25 02:21:00,
2013-04-24 19:26:00,55.3,47.5,29.83,North,354,0.0,3.0,75,0.00,,,0.00,12,WeatherCatV1.12B45,2013-04-25 02:26:00,
2013-04-24 19:31:00,55.1,47.7,29.83,North,354,0.0,2.0,76,0.00,,,0.00,9,WeatherCatV1.12B45,2013-04-25 02:31:00,
2013-04-24 19:36:00,55.0,47.6,29.83,North,356,1.0,5.0,76,0.00,,,0.00,5,WeatherCatV1.12B45,2013-04-25 02:36:00,
2013-04-24 19:41:00,54.8,47.7,29.83,North,353,1.0,3.0,77,0.00,,,0.00,0,WeatherCatV1.12B45,2013-04-25 02:41:00,
2013-04-24 19:46:00,54.8,47.7,29.84,North,354,3.0,7.0,77,0.00,,,0.00,0,WeatherCatV1.12B45,2013-04-25 02:46:00,
2013-04-24 19:51:00,54.7,47.6,29.84,North,354,0.0,3.0,77,0.00,,,0.00,0,WeatherCatV1.12B45,2013-04-25 02:51:00,
2013-04-24 19:56:00,54.7,48.0,29.84,NNW,340,0.0,2.0,78,0.00,,,0.00,0,WeatherCatV1.12B45,2013-04-25 02:56:00,
2013-04-24 20:01:00,54.7,48.0,29.84,NNW,339,0.0,2.0,78,0.00,,,0.00,0,WeatherCatV1.12B45,2013-04-25 03:01:00,
2013-04-24 20:06:00,54.7,48.0,29.84,NNW,343,6.0,6.0,78,0.00,,,0.00,0,WeatherCatV1.12B45,2013-04-25 03:06:00,
2013-04-24 20:11:00,54.5,47.8,29.84,North,350,1.0,2.0,78,0.00,,,0.00,0,WeatherCatV1.12B45,2013-04-25 03:11:00,
2013-04-24 20:16:00,54.5,47.8,29.84,NNW,343,2.0,2.0,78,0.00,,,0.00,0,WeatherCatV1.12B45,2013-04-25 03:16:00,
2013-04-24 20:21:00,54.5,47.8,29.84,North,356,2.0,5.0,78,0.00,,,0.00,0,WeatherCatV1.12B45,2013-04-25 03:21:00,
2013-04-24 20:26:00,54.5,47.8,29.84,North,356,3.0,3.0,78,0.00,,,0.00,0,WeatherCatV1.12B45,2013-04-25 03:26:00,
2013-04-24 20:31:00,54.4,47.7,29.85,North,353,0.0,0.0,78,0.00,,,0.00,0,WeatherCatV1.12B45,2013-04-25 03:31:00,
2013-04-24 20:36:00,54.2,47.5,29.85,NNW,340,3.0,3.0,78,0.00,,,0.00,0,WeatherCatV1.12B45,2013-04-25 03:36:00,
2013-04-24 20:41:00,54.2,47.8,29.85,North,353,2.0,3.0,79,0.00,,,0.00,0,WeatherCatV1.12B45,2013-04-25 03:41:00,
2013-04-24 20:46:00,54.1,47.7,29.85,North,349,2.0,3.0,79,0.00,,,0.00,0,WeatherCatV1.12B45,2013-04-25 03:46:00,
2013-04-24 20:51:00,53.9,47.5,29.85,NNW,342,2.0,3.0,79,0.00,,,0.00,0,WeatherCatV1.12B45,2013-04-25 03:51:00,
2013-04-24 20:56:00,53.9,47.5,29.85,NNW,344,0.0,2.0,79,0.00,,,0.00,0,WeatherCatV1.12B45,2013-04-25 03:56:00,
2013-04-24 21:01:00,53.8,47.8,29.85,NNW,340,1.0,1.0,80,0.00,,,0.00,0,WeatherCatV1.12B45,2013-04-25 04:01:00,
2013-04-24 21:06:00,53.6,47.6,29.85,NNW,340,0.0,2.0,80,0.00,,,0.00,0,WeatherCatV1.12B45,2013-04-25 04:06:00,
2013-04-24 21:11:00,53.6,47.6,29.85,NNW,343,1.0,1.0,80,0.00,,,0.00,0,WeatherCatV1.12B45,2013-04-25 04:11:00,
2013-04-24 21:16:00,53.5,47.5,29.86,North,349,0.0,1.0,80,0.00,,,0.00,0,WeatherCatV1.12B45,2013-04-25 04:16:00,
2013-04-24 21:21:00,53.3,47.3,29.86,NNW,329,0.0,2.0,80,0.00,,,0.00,0,WeatherCatV1.12B45,2013-04-25 04:21:00,
2013-04-24 21:26:00,53.3,47.3,29.86,NNW,329,0.0,0.0,80,0.00,,,0.00,0,WeatherCatV1.12B45,2013-04-25 04:26:00,
2013-04-24 21:31:00,53.3,47.3,29.86,NW,313,1.0,1.0,80,0.00,,,0.00,0,WeatherCatV1.12B45,2013-04-25 04:31:00,
2013-04-24 21:36:00,53.3,47.3,29.86,NNW,336,0.0,3.0,80,0.00,,,0.00,0,WeatherCatV1.12B45,2013-04-25 04:36:00,
2013-04-24 21:41:00,53.3,47.3,29.86,NNW,347,2.0,2.0,80,0.00,,,0.00,0,WeatherCatV1.12B45,2013-04-25 04:41:00,
2013-04-24 21:46:00,53.3,47.3,29.87,NNW,347,0.0,1.0,80,0.00,,,0.00,0,WeatherCatV1.12B45,2013-04-25 04:46:00,
2013-04-24 21:51:00,53.5,47.5,29.87,NNW,346,2.0,2.0,80,0.00,,,0.00,0,WeatherCatV1.12B45,2013-04-25 04:51:00,
2013-04-24 21:56:00,53.5,47.5,29.87,NNW,346,2.0,2.0,80,0.00,,,0.00,0,WeatherCatV1.12B45,2013-04-25 04:56:00,
2013-04-24 22:01:00,53.5,47.5,29.87,North,349,0.0,0.0,80,0.00,,,0.00,0,WeatherCatV1.12B45,2013-04-25 05:01:00,
2013-04-24 22:06:00,53.5,47.5,29.87,NNW,344,0.0,2.0,80,0.00,,,0.00,0,WeatherCatV1.12B45,2013-04-25 05:06:00,
2013-04-24 22:11:00,53.5,47.5,29.87,NNW,343,0.0,1.0,80,0.00,,,0.00,0,WeatherCatV1.12B45,2013-04-25 05:11:00,
2013-04-24 22:16:00,53.3,47.3,29.87,NNW,346,0.0,1.0,80,0.00,,,0.00,0,WeatherCatV1.12B45,2013-04-25 05:16:00,
2013-04-24 22:21:00,53.3,47.3,29.87,NNW,337,1.0,1.0,80,0.00,,,0.00,0,WeatherCatV1.12B45,2013-04-25 05:21:00,
2013-04-24 22:26:00,53.3,47.3,29.87,North,353,0.0,3.0,80,0.00,,,0.00,0,WeatherCatV1.12B45,2013-04-25 05:26:00,
2013-04-24 22:31:00,53.2,47.2,29.87,NNW,339,0.0,2.0,80,0.00,,,0.00,0,WeatherCatV1.12B45,2013-04-25 05:31:00,
2013-04-24 22:36:00,53.2,47.2,29.87,North,353,2.0,3.0,80,0.00,,,0.00,0,WeatherCatV1.12B45,2013-04-25 05:36:00,
2013-04-24 22:41:00,53.2,47.2,29.87,North,354,0.0,0.0,80,0.00,,,0.00,0,WeatherCatV1.12B45,2013-04-25 05:41:00,
2013-04-24 22:46:00,53.1,47.1,29.87,North,356,0.0,0.0,80,0.00,,,0.00,0,WeatherCatV1.12B45,2013-04-25 05:46:00,
2013-04-24 22:51:00,53.1,47.1,29.87,North,356,0.0,0.0,80,0.00,,,0.00,0,WeatherCatV1.12B45,2013-04-25 05:51:00,
2013-04-24 22:56:00,52.9,46.9,29.87,North,354,0.0,0.0,80,0.00,,,0.00,0,WeatherCatV1.12B45,2013-04-25 05:56:00,
2013-04-24 23:01:00,52.9,46.9,29.87,North,353,0.0,1.0,80,0.00,,,0.00,0,WeatherCatV1.12B45,2013-04-25 06:01:00,
2013-04-24 23:06:00,52.8,46.8,29.87,North,349,0.0,0.0,80,0.00,,,0.00,0,WeatherCatV1.12B45,2013-04-25 06:06:00,
2013-04-24 23:11:00,52.6,46.9,29.87,North,349,0.0,0.0,81,0.00,,,0.00,0,WeatherCatV1.12B45,2013-04-25 06:11:00,
2013-04-24 23:16:00,52.6,46.9,29.87,NNW,329,0.0,1.0,81,0.00,,,0.00,0,WeatherCatV1.12B45,2013-04-25 06:16:00,
2013-04-24 23:21:00,52.6,46.9,29.87,NNW,330,0.0,0.0,81,0.00,,,0.00,0,WeatherCatV1.12B45,2013-04-25 06:21:00,
2013-04-24 23:26:00,52.6,46.9,29.87,NNW,332,2.0,2.0,81,0.00,,,0.00,0,WeatherCatV1.12B45,2013-04-25 06:26:00,
2013-04-24 23:31:00,52.6,46.9,29.87,NW,313,0.0,0.0,81,0.00,,,0.00,0,WeatherCatV1.12B45,2013-04-25 06:31:00,
2013-04-24 23:36:00,52.6,46.9,29.87,NNW,333,1.0,1.0,81,0.00,,,0.00,0,WeatherCatV1.12B45,2013-04-25 06:36:00,
2013-04-24 23:41:00,52.6,46.9,29.87,NNW,335,0.0,1.0,81,0.00,,,0.00,0,WeatherCatV1.12B45,2013-04-25 06:41:00,
2013-04-24 23:46:00,52.5,46.8,29.87,NNW,332,0.0,0.0,81,0.00,,,0.00,0,WeatherCatV1.12B45,2013-04-25 06:46:00,
2013-04-24 23:51:00,52.5,46.8,29.87,NNW,330,0.0,1.0,81,0.00,,,0.00,0,WeatherCatV1.12B45,2013-04-25 06:51:00,
2013-04-24 23:56:00,52.5,47.2,29.87,NW,322,0.0,0.0,82,0.00,,,0.00,0,WeatherCatV1.12B45,2013-04-25 06:56:00,